Terminal Aerodrome Forecast
Issued by NWS Omaha/Valley, NE

Home | Current Version | Previous Version | Graphics & Text | Print | Product List | Glossary On
Versions: 1 2 3 4 5 6 7 8 9 10 11 12 13 14 15 16 17 18 19 20 21 22 23 24 25 26 27 28 29 30 31 32 33 34 35
000
FTUS43 KOAX 262201 AAB
TAFOFK
TAF AMD
KOFK 262201Z 2622/2718 11010KT P6SM BKN025 OVC090
      TEMPO 2622/2701 SCT025 OVC090
     FM270600 14004KT 6SM BR OVC015
      TEMPO 2709/2713 2SM BR OVC005
     FM271600 14005KT P6SM SCT015 SCT100=

USA.gov is the U.S. government's official web portal to all federal, state and local government web resources and services.